sensor_id;sensor_type;location;lat;lon;timestamp;P1;durP1;ratioP1;P2;durP2;ratioP2
14167;SDS011;7163;50.626;12.922;2023-07-24T00:04:48;5.70;;;3.80;;
14167;SDS011;7163;50.626;12.922;2023-07-24T00:09:49;7.13;;;4.23;;
14167;SDS011;7163;50.626;12.922;2023-07-24T00:14:51;8.13;;;4.27;;
14167;SDS011;7163;50.626;12.922;2023-07-24T00:19:52;8.37;;;4.17;;
14167;SDS011;7163;50.626;12.922;2023-07-24T00:24:52;6.47;;;4.50;;
14167;SDS011;7163;50.626;12.922;2023-07-24T00:29:53;6.57;;;4.40;;
14167;SDS011;7163;50.626;12.922;2023-07-24T00:34:54;4.33;;;3.40;;
14167;SDS011;7163;50.626;12.922;2023-07-24T00:39:54;7.43;;;4.03;;
14167;SDS011;7163;50.626;12.922;2023-07-24T00:44:54;6.30;;;4.13;;
14167;SDS011;7163;50.626;12.922;2023-07-24T00:49:55;7.07;;;4.27;;
14167;SDS011;7163;50.626;12.922;2023-07-24T00:54:56;7.40;;;4.10;;
14167;SDS011;7163;50.626;12.922;2023-07-24T00:59:56;7.63;;;4.60;;
14167;SDS011;7163;50.626;12.922;2023-07-24T01:04:57;7.03;;;4.47;;
14167;SDS011;7163;50.626;12.922;2023-07-24T01:09:58;5.50;;;3.70;;
14167;SDS011;7163;50.626;12.922;2023-07-24T01:15:09;8.17;;;4.47;;
14167;SDS011;7163;50.626;12.922;2023-07-24T01:20:15;7.40;;;4.57;;
14167;SDS011;7163;50.626;12.922;2023-07-24T01:25:53;7.37;;;4.77;;
14167;SDS011;7163;50.626;12.922;2023-07-24T01:30:57;9.30;;;4.43;;
14167;SDS011;7163;50.626;12.922;2023-07-24T01:35:59;9.30;;;4.30;;
14167;SDS011;7163;50.626;12.922;2023-07-24T01:41:00;8.40;;;5.13;;
14167;SDS011;7163;50.626;12.922;2023-07-24T01:46:01;7.43;;;4.40;;
14167;SDS011;7163;50.626;12.922;2023-07-24T01:51:01;8.40;;;4.70;;
14167;SDS011;7163;50.626;12.922;2023-07-24T01:56:02;10.53;;;5.13;;
14167;SDS011;7163;50.626;12.922;2023-07-24T02:01:02;7.13;;;4.30;;
14167;SDS011;7163;50.626;12.922;2023-07-24T02:06:03;7.73;;;4.80;;
14167;SDS011;7163;50.626;12.922;2023-07-24T02:11:03;11.33;;;4.60;;
14167;SDS011;7163;50.626;12.922;2023-07-24T02:16:04;7.77;;;4.40;;
14167;SDS011;7163;50.626;12.922;2023-07-24T02:21:04;8.80;;;5.00;;
14167;SDS011;7163;50.626;12.922;2023-07-24T02:26:06;8.00;;;4.70;;
14167;SDS011;7163;50.626;12.922;2023-07-24T02:31:06;7.37;;;4.50;;
14167;SDS011;7163;50.626;12.922;2023-07-24T02:36:06;7.87;;;4.53;;
14167;SDS011;7163;50.626;12.922;2023-07-24T02:41:07;8.27;;;4.60;;
14167;SDS011;7163;50.626;12.922;2023-07-24T02:46:08;7.87;;;4.57;;
14167;SDS011;7163;50.626;12.922;2023-07-24T02:51:08;8.30;;;4.63;;
14167;SDS011;7163;50.626;12.922;2023-07-24T02:56:09;7.73;;;4.93;;
14167;SDS011;7163;50.626;12.922;2023-07-24T03:01:09;7.33;;;4.77;;
14167;SDS011;7163;50.626;12.922;2023-07-24T03:06:12;9.47;;;5.07;;
14167;SDS011;7163;50.626;12.922;2023-07-24T03:11:12;9.80;;;5.10;;
14167;SDS011;7163;50.626;12.922;2023-07-24T03:16:12;9.50;;;5.23;;
14167;SDS011;7163;50.626;12.922;2023-07-24T03:21:13;7.10;;;4.27;;
14167;SDS011;7163;50.626;12.922;2023-07-24T03:26:13;10.87;;;5.17;;
14167;SDS011;7163;50.626;12.922;2023-07-24T03:31:17;8.93;;;5.10;;
14167;SDS011;7163;50.626;12.922;2023-07-24T03:36:17;8.07;;;5.10;;
14167;SDS011;7163;50.626;12.922;2023-07-24T03:41:18;7.73;;;5.27;;
14167;SDS011;7163;50.626;12.922;2023-07-24T03:46:18;9.40;;;5.60;;
14167;SDS011;7163;50.626;12.922;2023-07-24T03:51:19;12.70;;;6.20;;
14167;SDS011;7163;50.626;12.922;2023-07-24T03:56:19;9.70;;;5.53;;
14167;SDS011;7163;50.626;12.922;2023-07-24T04:01:20;8.60;;;5.30;;
14167;SDS011;7163;50.626;12.922;2023-07-24T04:06:21;8.73;;;5.07;;
14167;SDS011;7163;50.626;12.922;2023-07-24T04:11:21;10.00;;;5.10;;
14167;SDS011;7163;50.626;12.922;2023-07-24T04:16:26;12.07;;;5.53;;
14167;SDS011;7163;50.626;12.922;2023-07-24T04:21:27;9.53;;;6.23;;
14167;SDS011;7163;50.626;12.922;2023-07-24T04:26:28;8.40;;;5.40;;
14167;SDS011;7163;50.626;12.922;2023-07-24T04:31:28;8.80;;;5.60;;
14167;SDS011;7163;50.626;12.922;2023-07-24T04:36:29;10.20;;;5.47;;
14167;SDS011;7163;50.626;12.922;2023-07-24T04:41:29;8.17;;;5.23;;
14167;SDS011;7163;50.626;12.922;2023-07-24T04:46:30;8.57;;;5.50;;
14167;SDS011;7163;50.626;12.922;2023-07-24T04:51:30;10.43;;;5.80;;
14167;SDS011;7163;50.626;12.922;2023-07-24T04:56:31;10.23;;;5.60;;
14167;SDS011;7163;50.626;12.922;2023-07-24T05:01:32;11.37;;;5.93;;
14167;SDS011;7163;50.626;12.922;2023-07-24T05:06:32;8.07;;;5.23;;
14167;SDS011;7163;50.626;12.922;2023-07-24T05:11:33;9.47;;;5.50;;
14167;SDS011;7163;50.626;12.922;2023-07-24T05:16:33;8.57;;;5.33;;
14167;SDS011;7163;50.626;12.922;2023-07-24T05:21:35;10.67;;;5.60;;
14167;SDS011;7163;50.626;12.922;2023-07-24T05:26:36;12.63;;;5.60;;
14167;SDS011;7163;50.626;12.922;2023-07-24T05:31:36;10.17;;;5.43;;
14167;SDS011;7163;50.626;12.922;2023-07-24T05:36:36;8.33;;;5.27;;
14167;SDS011;7163;50.626;12.922;2023-07-24T05:41:37;8.15;;;5.05;;
14167;SDS011;7163;50.626;12.922;2023-07-24T05:46:37;9.90;;;5.20;;
14167;SDS011;7163;50.626;12.922;2023-07-24T05:51:38;9.85;;;5.68;;
14167;SDS011;7163;50.626;12.922;2023-07-24T05:56:38;9.18;;;5.65;;
14167;SDS011;7163;50.626;12.922;2023-07-24T06:01:39;8.38;;;5.53;;
14167;SDS011;7163;50.626;12.922;2023-07-24T06:06:39;11.13;;;5.90;;
14167;SDS011;7163;50.626;12.922;2023-07-24T06:11:47;10.43;;;5.55;;
14167;SDS011;7163;50.626;12.922;2023-07-24T06:16:57;11.30;;;6.10;;
14167;SDS011;7163;50.626;12.922;2023-07-24T06:21:58;10.00;;;6.50;;
14167;SDS011;7163;50.626;12.922;2023-07-24T06:26:58;10.30;;;6.15;;
14167;SDS011;7163;50.626;12.922;2023-07-24T06:32:02;9.25;;;5.43;;
14167;SDS011;7163;50.626;12.922;2023-07-24T06:37:03;11.18;;;6.40;;
14167;SDS011;7163;50.626;12.922;2023-07-24T06:42:04;12.18;;;6.70;;
14167;SDS011;7163;50.626;12.922;2023-07-24T06:47:06;8.55;;;5.55;;
14167;SDS011;7163;50.626;12.922;2023-07-24T06:52:07;8.60;;;5.47;;
14167;SDS011;7163;50.626;12.922;2023-07-24T06:57:08;10.23;;;6.57;;
14167;SDS011;7163;50.626;12.922;2023-07-24T07:02:08;9.50;;;6.32;;
14167;SDS011;7163;50.626;12.922;2023-07-24T07:07:09;8.98;;;5.65;;
14167;SDS011;7163;50.626;12.922;2023-07-24T07:12:11;12.48;;;7.05;;
14167;SDS011;7163;50.626;12.922;2023-07-24T07:17:11;11.30;;;7.00;;
14167;SDS011;7163;50.626;12.922;2023-07-24T07:22:11;10.18;;;6.63;;
14167;SDS011;7163;50.626;12.922;2023-07-24T07:27:12;12.13;;;7.03;;
14167;SDS011;7163;50.626;12.922;2023-07-24T07:32:12;11.15;;;7.80;;
14167;SDS011;7163;50.626;12.922;2023-07-24T07:37:13;11.88;;;7.40;;
14167;SDS011;7163;50.626;12.922;2023-07-24T07:42:13;13.40;;;7.55;;
14167;SDS011;7163;50.626;12.922;2023-07-24T07:47:14;10.13;;;7.25;;
14167;SDS011;7163;50.626;12.922;2023-07-24T07:52:15;11.52;;;6.60;;
14167;SDS011;7163;50.626;12.922;2023-07-24T07:57:17;12.45;;;6.32;;
14167;SDS011;7163;50.626;12.922;2023-07-24T08:02:20;10.70;;;6.68;;
14167;SDS011;7163;50.626;12.922;2023-07-24T08:07:32;11.05;;;6.18;;
14167;SDS011;7163;50.626;12.922;2023-07-24T08:12:33;10.27;;;5.60;;
14167;SDS011;7163;50.626;12.922;2023-07-24T08:17:34;8.40;;;5.80;;
14167;SDS011;7163;50.626;12.922;2023-07-24T08:22:38;10.38;;;6.50;;
14167;SDS011;7163;50.626;12.922;2023-07-24T08:27:39;9.60;;;5.95;;
14167;SDS011;7163;50.626;12.922;2023-07-24T08:32:39;11.20;;;6.65;;
14167;SDS011;7163;50.626;12.922;2023-07-24T08:37:42;9.68;;;6.15;;
14167;SDS011;7163;50.626;12.922;2023-07-24T08:42:44;12.85;;;7.22;;
14167;SDS011;7163;50.626;12.922;2023-07-24T08:48:05;10.18;;;7.03;;
14167;SDS011;7163;50.626;12.922;2023-07-24T08:53:05;10.63;;;7.32;;
14167;SDS011;7163;50.626;12.922;2023-07-24T08:58:07;11.38;;;7.85;;
14167;SDS011;7163;50.626;12.922;2023-07-24T09:03:10;11.65;;;7.53;;
14167;SDS011;7163;50.626;12.922;2023-07-24T09:08:30;12.43;;;8.70;;
14167;SDS011;7163;50.626;12.922;2023-07-24T09:13:33;11.15;;;7.40;;
14167;SDS011;7163;50.626;12.922;2023-07-24T09:18:39;13.77;;;7.90;;
14167;SDS011;7163;50.626;12.922;2023-07-24T09:23:41;17.15;;;9.82;;
14167;SDS011;7163;50.626;12.922;2023-07-24T09:29:03;13.18;;;8.30;;
14167;SDS011;7163;50.626;12.922;2023-07-24T09:34:13;13.40;;;8.57;;
14167;SDS011;7163;50.626;12.922;2023-07-24T09:39:25;14.65;;;8.40;;
14167;SDS011;7163;50.626;12.922;2023-07-24T09:44:41;13.98;;;8.57;;
14167;SDS011;7163;50.626;12.922;2023-07-24T09:49:41;11.85;;;8.00;;
14167;SDS011;7163;50.626;12.922;2023-07-24T09:54:52;11.75;;;7.88;;
14167;SDS011;7163;50.626;12.922;2023-07-24T10:00:18;13.07;;;8.40;;
14167;SDS011;7163;50.626;12.922;2023-07-24T10:05:21;11.98;;;7.68;;
14167;SDS011;7163;50.626;12.922;2023-07-24T10:10:22;12.07;;;7.57;;
14167;SDS011;7163;50.626;12.922;2023-07-24T10:15:24;13.45;;;9.75;;
14167;SDS011;7163;50.626;12.922;2023-07-24T10:20:32;12.25;;;7.68;;
14167;SDS011;7163;50.626;12.922;2023-07-24T10:25:40;9.77;;;7.15;;
14167;SDS011;7163;50.626;12.922;2023-07-24T10:30:42;13.00;;;7.10;;
14167;SDS011;7163;50.626;12.922;2023-07-24T10:35:45;9.70;;;7.03;;
14167;SDS011;7163;50.626;12.922;2023-07-24T10:40:47;10.60;;;7.03;;
14167;SDS011;7163;50.626;12.922;2023-07-24T10:45:58;9.40;;;7.07;;
14167;SDS011;7163;50.626;12.922;2023-07-24T10:51:05;10.02;;;7.43;;
14167;SDS011;7163;50.626;12.922;2023-07-24T10:56:14;11.73;;;8.30;;
14167;SDS011;7163;50.626;12.922;2023-07-24T11:01:17;13.25;;;8.27;;
14167;SDS011;7163;50.626;12.922;2023-07-24T11:06:18;10.90;;;7.97;;
14167;SDS011;7163;50.626;12.922;2023-07-24T11:11:20;12.77;;;8.48;;
14167;SDS011;7163;50.626;12.922;2023-07-24T11:16:23;12.10;;;8.30;;
14167;SDS011;7163;50.626;12.922;2023-07-24T11:21:27;12.77;;;8.05;;
14167;SDS011;7163;50.626;12.922;2023-07-24T11:26:31;14.38;;;8.68;;
14167;SDS011;7163;50.626;12.922;2023-07-24T11:31:36;18.15;;;9.38;;
14167;SDS011;7163;50.626;12.922;2023-07-24T11:36:38;12.23;;;8.88;;
14167;SDS011;7163;50.626;12.922;2023-07-24T11:41:39;14.82;;;9.45;;
14167;SDS011;7163;50.626;12.922;2023-07-24T11:46:39;11.65;;;8.45;;
14167;SDS011;7163;50.626;12.922;2023-07-24T11:51:40;12.85;;;8.75;;
14167;SDS011;7163;50.626;12.922;2023-07-24T12:13:18;13.53;;;8.93;;
14167;SDS011;7163;50.626;12.922;2023-07-24T12:18:18;15.40;;;10.40;;
14167;SDS011;7163;50.626;12.922;2023-07-24T12:23:19;17.27;;;10.57;;
14167;SDS011;7163;50.626;12.922;2023-07-24T12:28:19;14.05;;;7.93;;
14167;SDS011;7163;50.626;12.922;2023-07-24T12:33:20;12.07;;;4.93;;
14167;SDS011;7163;50.626;12.922;2023-07-24T12:38:24;7.63;;;4.72;;
14167;SDS011;7163;50.626;12.922;2023-07-24T12:43:24;7.32;;;4.15;;
14167;SDS011;7163;50.626;12.922;2023-07-24T12:48:24;7.85;;;4.10;;
14167;SDS011;7163;50.626;12.922;2023-07-24T12:53:25;4.72;;;2.72;;
14167;SDS011;7163;50.626;12.922;2023-07-24T12:58:26;5.75;;;3.08;;
14167;SDS011;7163;50.626;12.922;2023-07-24T13:03:26;4.57;;;2.63;;
14167;SDS011;7163;50.626;12.922;2023-07-24T13:08:26;6.55;;;3.13;;
14167;SDS011;7163;50.626;12.922;2023-07-24T13:13:30;6.60;;;3.28;;
14167;SDS011;7163;50.626;12.922;2023-07-24T13:18:31;7.15;;;3.38;;
14167;SDS011;7163;50.626;12.922;2023-07-24T13:23:32;8.18;;;3.88;;
14167;SDS011;7163;50.626;12.922;2023-07-24T13:28:33;7.20;;;4.55;;
14167;SDS011;7163;50.626;12.922;2023-07-24T13:33:33;9.15;;;4.50;;
14167;SDS011;7163;50.626;12.922;2023-07-24T13:38:34;7.85;;;5.72;;
14167;SDS011;7163;50.626;12.922;2023-07-24T13:43:37;8.32;;;5.25;;
14167;SDS011;7163;50.626;12.922;2023-07-24T13:48:37;9.48;;;5.47;;
14167;SDS011;7163;50.626;12.922;2023-07-24T13:53:38;8.20;;;6.15;;
14167;SDS011;7163;50.626;12.922;2023-07-24T13:58:39;9.68;;;6.75;;
14167;SDS011;7163;50.626;12.922;2023-07-24T14:03:39;9.32;;;6.07;;
14167;SDS011;7163;50.626;12.922;2023-07-24T14:08:44;9.57;;;6.68;;
14167;SDS011;7163;50.626;12.922;2023-07-24T14:13:44;8.70;;;6.85;;
14167;SDS011;7163;50.626;12.922;2023-07-24T14:18:46;13.10;;;7.45;;
14167;SDS011;7163;50.626;12.922;2023-07-24T14:23:46;11.43;;;7.75;;
14167;SDS011;7163;50.626;12.922;2023-07-24T14:28:47;10.60;;;7.93;;
14167;SDS011;7163;50.626;12.922;2023-07-24T14:33:48;10.70;;;7.80;;
14167;SDS011;7163;50.626;12.922;2023-07-24T14:38:48;13.98;;;8.10;;
14167;SDS011;7163;50.626;12.922;2023-07-24T14:43:52;12.77;;;8.10;;
14167;SDS011;7163;50.626;12.922;2023-07-24T14:48:53;9.40;;;7.00;;
14167;SDS011;7163;50.626;12.922;2023-07-24T14:53:54;10.68;;;7.53;;
14167;SDS011;7163;50.626;12.922;2023-07-24T14:58:54;11.88;;;8.45;;
14167;SDS011;7163;50.626;12.922;2023-07-24T15:03:58;11.88;;;8.15;;
14167;SDS011;7163;50.626;12.922;2023-07-24T15:08:58;10.73;;;7.75;;
14167;SDS011;7163;50.626;12.922;2023-07-24T15:13:59;11.82;;;8.35;;
14167;SDS011;7163;50.626;12.922;2023-07-24T15:19:00;12.20;;;8.45;;
14167;SDS011;7163;50.626;12.922;2023-07-24T15:24:01;12.73;;;8.57;;
14167;SDS011;7163;50.626;12.922;2023-07-24T15:29:01;10.45;;;8.13;;
14167;SDS011;7163;50.626;12.922;2023-07-24T15:34:02;12.43;;;8.35;;
14167;SDS011;7163;50.626;12.922;2023-07-24T15:39:03;11.25;;;8.27;;
14167;SDS011;7163;50.626;12.922;2023-07-24T15:44:04;13.02;;;8.88;;
14167;SDS011;7163;50.626;12.922;2023-07-24T15:49:04;12.27;;;8.05;;
14167;SDS011;7163;50.626;12.922;2023-07-24T15:54:05;12.33;;;8.73;;
14167;SDS011;7163;50.626;12.922;2023-07-24T15:59:08;12.25;;;8.65;;
14167;SDS011;7163;50.626;12.922;2023-07-24T16:04:09;11.63;;;8.82;;
14167;SDS011;7163;50.626;12.922;2023-07-24T16:09:10;11.27;;;7.90;;
14167;SDS011;7163;50.626;12.922;2023-07-24T16:14:11;12.73;;;8.20;;
14167;SDS011;7163;50.626;12.922;2023-07-24T16:19:12;10.80;;;7.90;;
14167;SDS011;7163;50.626;12.922;2023-07-24T16:24:13;9.68;;;7.57;;
14167;SDS011;7163;50.626;12.922;2023-07-24T16:29:17;11.82;;;8.10;;
14167;SDS011;7163;50.626;12.922;2023-07-24T16:34:18;9.38;;;7.35;;
14167;SDS011;7163;50.626;12.922;2023-07-24T16:39:19;10.43;;;8.23;;
14167;SDS011;7163;50.626;12.922;2023-07-24T16:44:20;11.27;;;8.52;;
14167;SDS011;7163;50.626;12.922;2023-07-24T16:49:20;11.45;;;8.13;;
14167;SDS011;7163;50.626;12.922;2023-07-24T16:54:21;13.25;;;8.38;;
14167;SDS011;7163;50.626;12.922;2023-07-24T16:59:24;9.95;;;7.20;;
14167;SDS011;7163;50.626;12.922;2023-07-24T17:04:27;13.60;;;8.77;;
14167;SDS011;7163;50.626;12.922;2023-07-24T17:09:29;12.05;;;7.70;;
14167;SDS011;7163;50.626;12.922;2023-07-24T17:14:29;11.35;;;7.63;;
14167;SDS011;7163;50.626;12.922;2023-07-24T17:19:30;12.75;;;8.07;;
14167;SDS011;7163;50.626;12.922;2023-07-24T17:24:31;11.20;;;7.45;;
14167;SDS011;7163;50.626;12.922;2023-07-24T17:29:32;14.25;;;7.10;;
14167;SDS011;7163;50.626;12.922;2023-07-24T17:34:34;10.57;;;7.32;;
14167;SDS011;7163;50.626;12.922;2023-07-24T17:39:34;12.20;;;7.10;;
14167;SDS011;7163;50.626;12.922;2023-07-24T17:44:35;10.43;;;7.10;;
14167;SDS011;7163;50.626;12.922;2023-07-24T17:49:35;10.02;;;7.00;;
14167;SDS011;7163;50.626;12.922;2023-07-24T17:54:37;10.07;;;7.00;;
14167;SDS011;7163;50.626;12.922;2023-07-24T17:59:42;20.23;;;6.70;;
14167;SDS011;7163;50.626;12.922;2023-07-24T18:04:43;12.30;;;6.80;;
14167;SDS011;7163;50.626;12.922;2023-07-24T18:09:43;9.38;;;6.05;;
14167;SDS011;7163;50.626;12.922;2023-07-24T18:14:44;9.82;;;6.53;;
14167;SDS011;7163;50.626;12.922;2023-07-24T18:19:45;9.65;;;6.63;;
14167;SDS011;7163;50.626;12.922;2023-07-24T18:24:45;8.82;;;6.40;;
14167;SDS011;7163;50.626;12.922;2023-07-24T18:29:46;9.75;;;6.53;;
14167;SDS011;7163;50.626;12.922;2023-07-24T18:34:46;9.45;;;6.15;;
14167;SDS011;7163;50.626;12.922;2023-07-24T18:39:47;10.38;;;6.90;;
14167;SDS011;7163;50.626;12.922;2023-07-24T18:44:47;11.75;;;6.65;;
14167;SDS011;7163;50.626;12.922;2023-07-24T18:49:48;8.80;;;6.13;;
14167;SDS011;7163;50.626;12.922;2023-07-24T18:54:51;11.25;;;5.82;;
14167;SDS011;7163;50.626;12.922;2023-07-24T18:59:51;9.75;;;5.97;;
14167;SDS011;7163;50.626;12.922;2023-07-24T19:04:52;10.18;;;5.95;;
14167;SDS011;7163;50.626;12.922;2023-07-24T19:09:52;9.93;;;6.70;;
14167;SDS011;7163;50.626;12.922;2023-07-24T19:14:53;8.05;;;5.47;;
14167;SDS011;7163;50.626;12.922;2023-07-24T19:19:53;8.27;;;6.10;;
14167;SDS011;7163;50.626;12.922;2023-07-24T19:24:54;9.75;;;6.13;;
14167;SDS011;7163;50.626;12.922;2023-07-24T19:29:54;8.35;;;5.80;;
14167;SDS011;7163;50.626;12.922;2023-07-24T19:34:56;8.50;;;5.60;;
14167;SDS011;7163;50.626;12.922;2023-07-24T19:39:57;11.60;;;5.15;;
14167;SDS011;7163;50.626;12.922;2023-07-24T19:44:58;8.35;;;5.57;;
14167;SDS011;7163;50.626;12.922;2023-07-24T19:49:59;7.93;;;5.28;;
14167;SDS011;7163;50.626;12.922;2023-07-24T19:54:59;7.07;;;3.75;;
14167;SDS011;7163;50.626;12.922;2023-07-24T19:59:59;5.35;;;3.90;;
14167;SDS011;7163;50.626;12.922;2023-07-24T20:05:00;9.38;;;3.55;;
14167;SDS011;7163;50.626;12.922;2023-07-24T20:10:00;5.53;;;3.27;;
14167;SDS011;7163;50.626;12.922;2023-07-24T20:15:01;5.37;;;3.47;;
14167;SDS011;7163;50.626;12.922;2023-07-24T20:20:01;6.50;;;3.60;;
14167;SDS011;7163;50.626;12.922;2023-07-24T20:25:03;5.80;;;3.63;;
14167;SDS011;7163;50.626;12.922;2023-07-24T20:30:03;7.30;;;4.23;;
14167;SDS011;7163;50.626;12.922;2023-07-24T20:35:04;6.47;;;4.10;;
14167;SDS011;7163;50.626;12.922;2023-07-24T20:40:05;7.17;;;3.73;;
14167;SDS011;7163;50.626;12.922;2023-07-24T20:45:06;4.40;;;3.40;;
14167;SDS011;7163;50.626;12.922;2023-07-24T20:50:07;4.50;;;3.30;;
14167;SDS011;7163;50.626;12.922;2023-07-24T20:55:08;6.53;;;4.13;;
14167;SDS011;7163;50.626;12.922;2023-07-24T21:00:08;6.53;;;4.00;;
14167;SDS011;7163;50.626;12.922;2023-07-24T21:05:09;4.87;;;3.63;;
14167;SDS011;7163;50.626;12.922;2023-07-24T21:10:09;7.57;;;3.57;;
14167;SDS011;7163;50.626;12.922;2023-07-24T21:15:12;5.07;;;3.60;;
14167;SDS011;7163;50.626;12.922;2023-07-24T21:20:12;7.20;;;4.07;;
14167;SDS011;7163;50.626;12.922;2023-07-24T21:25:13;7.27;;;4.50;;
14167;SDS011;7163;50.626;12.922;2023-07-24T21:30:13;8.63;;;4.13;;
14167;SDS011;7163;50.626;12.922;2023-07-24T21:35:14;6.63;;;4.63;;
14167;SDS011;7163;50.626;12.922;2023-07-24T21:40:17;6.73;;;4.50;;
14167;SDS011;7163;50.626;12.922;2023-07-24T21:45:17;9.67;;;4.60;;
14167;SDS011;7163;50.626;12.922;2023-07-24T21:50:18;7.13;;;4.47;;
14167;SDS011;7163;50.626;12.922;2023-07-24T21:55:18;8.67;;;5.03;;
14167;SDS011;7163;50.626;12.922;2023-07-24T22:00:18;7.43;;;5.00;;
14167;SDS011;7163;50.626;12.922;2023-07-24T22:05:19;7.67;;;4.37;;
14167;SDS011;7163;50.626;12.922;2023-07-24T22:10:21;9.53;;;5.97;;
14167;SDS011;7163;50.626;12.922;2023-07-24T22:15:21;8.83;;;5.20;;
14167;SDS011;7163;50.626;12.922;2023-07-24T22:20:22;9.43;;;5.57;;
14167;SDS011;7163;50.626;12.922;2023-07-24T22:25:24;8.97;;;5.37;;
14167;SDS011;7163;50.626;12.922;2023-07-24T22:30:26;7.50;;;5.10;;
14167;SDS011;7163;50.626;12.922;2023-07-24T22:35:26;9.03;;;5.30;;
14167;SDS011;7163;50.626;12.922;2023-07-24T22:40:27;7.70;;;4.57;;
14167;SDS011;7163;50.626;12.922;2023-07-24T22:45:34;6.40;;;4.30;;
14167;SDS011;7163;50.626;12.922;2023-07-24T22:50:35;5.67;;;4.00;;
14167;SDS011;7163;50.626;12.922;2023-07-24T22:55:35;5.03;;;3.60;;
14167;SDS011;7163;50.626;12.922;2023-07-24T23:00:35;5.90;;;3.73;;
14167;SDS011;7163;50.626;12.922;2023-07-24T23:05:38;5.90;;;3.60;;
14167;SDS011;7163;50.626;12.922;2023-07-24T23:10:38;7.43;;;3.50;;
14167;SDS011;7163;50.626;12.922;2023-07-24T23:15:39;7.60;;;3.97;;
14167;SDS011;7163;50.626;12.922;2023-07-24T23:20:39;5.27;;;3.53;;
14167;SDS011;7163;50.626;12.922;2023-07-24T23:25:40;6.07;;;3.70;;
14167;SDS011;7163;50.626;12.922;2023-07-24T23:30:40;5.37;;;3.40;;
14167;SDS011;7163;50.626;12.922;2023-07-24T23:35:41;4.03;;;3.17;;
14167;SDS011;7163;50.626;12.922;2023-07-24T23:40:41;4.23;;;2.90;;
14167;SDS011;7163;50.626;12.922;2023-07-24T23:45:42;5.53;;;3.53;;
14167;SDS011;7163;50.626;12.922;2023-07-24T23:50:43;4.30;;;3.20;;
14167;SDS011;7163;50.626;12.922;2023-07-24T23:55:44;4.30;;;3.10;;
